createdAt,value
2019-06-07T00:00:48.995Z,18.65
2019-06-07T00:03:55.402Z,18.66
2019-06-07T00:07:01.289Z,18.74
2019-06-07T00:10:07.108Z,18.72
2019-06-07T00:13:17.078Z,18.68
2019-06-07T00:16:23.239Z,18.70
2019-06-07T00:19:28.243Z,18.70
2019-06-07T00:22:35.032Z,18.74
2019-06-07T00:25:41.030Z,18.79
2019-06-07T00:28:46.991Z,18.85
2019-06-07T00:31:53.305Z,18.90
2019-06-07T00:34:59.475Z,19.01
2019-06-07T00:38:05.651Z,19.03
2019-06-07T00:41:12.521Z,19.01
2019-06-07T00:44:22.661Z,19.04
2019-06-07T00:47:26.483Z,19.01
2019-06-07T00:50:32.646Z,19.10
2019-06-07T00:53:38.607Z,19.19
2019-06-07T00:56:44.886Z,19.19
2019-06-07T00:59:50.722Z,19.23
2019-06-07T01:02:56.749Z,19.17
2019-06-07T01:06:03.606Z,19.27
2019-06-07T01:09:09.560Z,19.28
2019-06-07T01:12:19.052Z,19.13
2019-06-07T01:15:28.825Z,19.03
2019-06-07T01:18:39.094Z,18.91
2019-06-07T01:21:38.601Z,18.75
2019-06-07T01:24:45.063Z,18.78
2019-06-07T01:27:51.474Z,18.81
2019-06-07T01:30:57.631Z,18.76
2019-06-07T01:34:03.756Z,18.79
2019-06-07T01:37:10.107Z,18.85
2019-06-07T01:40:17.157Z,18.81
2019-06-07T01:43:28.183Z,18.75
2019-06-07T01:46:31.582Z,18.81
2019-06-07T01:49:37.509Z,19.04
2019-06-07T01:52:44.617Z,18.96
2019-06-07T01:55:50.752Z,18.91
2019-06-07T01:58:57.111Z,18.81
2019-06-07T02:02:03.619Z,18.67
2019-06-07T02:05:09.636Z,18.51
2019-06-07T02:08:15.743Z,18.53
2019-06-07T02:11:22.446Z,18.48
2019-06-07T02:14:32.963Z,18.57
2019-06-07T02:17:37.829Z,18.61
2019-06-07T02:20:44.125Z,18.66
2019-06-07T02:23:50.175Z,18.75
2019-06-07T02:26:56.469Z,18.71
2019-06-07T02:30:35.079Z,18.61
2019-06-07T02:33:10.614Z,18.59
2019-06-07T02:36:16.715Z,18.51
2019-06-07T02:39:25.481Z,18.54
2019-06-07T02:42:39.010Z,18.44
2019-06-07T02:45:43.532Z,18.45
2019-06-07T02:48:46.610Z,18.43
2019-06-07T02:51:52.560Z,18.57
2019-06-07T02:54:58.381Z,18.57
2019-06-07T02:58:04.579Z,18.61
2019-06-07T03:01:10.560Z,18.56
2019-06-07T03:04:17.194Z,18.60
2019-06-07T03:07:23.508Z,18.65
2019-06-07T03:10:31.405Z,18.67
2019-06-07T03:13:37.753Z,18.71
2019-06-07T03:16:51.090Z,18.76
2019-06-07T03:19:58.428Z,18.80
2019-06-07T03:22:29.295Z,18.87
2019-06-07T03:25:01.435Z,18.95
2019-06-07T03:27:40.617Z,18.97
2019-06-07T03:30:35.341Z,19.05
2019-06-07T03:32:45.720Z,19.02
2019-06-07T03:35:08.389Z,19.11
2019-06-07T03:37:42.614Z,19.35
2019-06-07T03:40:11.227Z,19.52
2019-06-07T03:42:41.612Z,19.71
2019-06-07T03:45:12.052Z,19.90
2019-06-07T03:47:43.285Z,20.06
2019-06-07T03:50:13.726Z,20.33
2019-06-07T03:52:44.061Z,20.61
2019-06-07T03:55:14.455Z,20.85
2019-06-07T03:58:30.202Z,21.13
2019-06-07T04:00:17.846Z,21.80
2019-06-07T04:02:48.215Z,22.09
2019-06-07T04:05:18.528Z,22.09
2019-06-07T04:07:48.900Z,22.31
2019-06-07T04:10:19.272Z,22.41
2019-06-07T04:12:49.624Z,22.44
2019-06-07T04:15:19.998Z,22.57
2019-06-07T04:18:01.720Z,22.60
2019-06-07T04:20:22.558Z,22.70
2019-06-07T04:22:52.912Z,22.81
2019-06-07T04:25:23.395Z,22.82
2019-06-07T04:27:53.707Z,22.89
2019-06-07T04:30:41.826Z,23.00
2019-06-07T04:33:13.680Z,23.07
2019-06-07T04:35:45.325Z,23.13
2019-06-07T04:38:16.581Z,23.16
2019-06-07T04:40:47.199Z,23.31
2019-06-07T04:43:17.641Z,23.62
2019-06-07T04:45:51.550Z,23.86
2019-06-07T04:48:22.567Z,23.90
2019-06-07T04:50:54.389Z,23.94
2019-06-07T04:53:24.755Z,24.02
2019-06-07T04:55:55.226Z,24.29
2019-06-07T04:58:25.608Z,24.47
2019-06-07T05:01:02.611Z,24.70
2019-06-07T05:03:30.557Z,25.03
2019-06-07T05:06:00.079Z,25.14
2019-06-07T05:08:33.204Z,25.01
2019-06-07T05:11:02.487Z,24.81
2019-06-07T05:13:37.765Z,24.49
2019-06-07T05:16:04.921Z,24.25
2019-06-07T05:18:36.333Z,24.09
2019-06-07T05:21:07.457Z,23.91
2019-06-07T05:26:09.966Z,23.49
2019-06-07T05:28:42.821Z,23.40
2019-06-07T05:31:12.849Z,23.44
2019-06-07T05:33:43.612Z,23.41
2019-06-07T05:36:14.152Z,23.37
2019-06-07T05:38:45.167Z,23.55
2019-06-07T05:41:15.705Z,23.53
2019-06-07T05:44:00.222Z,23.57
2019-06-07T05:46:18.156Z,23.66
2019-06-07T05:48:48.928Z,23.69
2019-06-07T05:51:19.655Z,23.69
2019-06-07T05:53:50.145Z,23.64
2019-06-07T05:56:20.578Z,23.41
2019-06-07T05:58:50.952Z,23.39
2019-06-07T06:03:53.467Z,23.32
2019-06-07T06:06:23.829Z,23.37
2019-06-07T06:09:12.801Z,23.35
2019-06-07T06:11:43.147Z,23.36
2019-06-07T06:14:07.415Z,23.54
2019-06-07T06:16:31.721Z,23.90
2019-06-07T06:19:02.174Z,24.84
2019-06-07T06:21:32.608Z,26.22
2019-06-07T06:24:02.986Z,27.83
2019-06-07T06:26:33.456Z,29.64
2019-06-07T06:29:03.852Z,31.60
2019-06-07T06:31:34.197Z,32.98
2019-06-07T06:34:04.583Z,33.76
2019-06-07T06:36:35.263Z,34.20
2019-06-07T06:39:06.922Z,34.29
2019-06-07T06:41:50.755Z,33.80
2019-06-07T06:44:09.480Z,33.04
2019-06-07T06:46:46.165Z,32.46
2019-06-07T06:49:12.049Z,32.25
2019-06-07T06:51:46.990Z,32.57
2019-06-07T06:54:14.451Z,32.56
2019-06-07T06:56:45.653Z,32.14
2019-06-07T07:01:50.964Z,30.44
2019-06-07T07:04:21.208Z,29.79
2019-06-07T07:06:53.711Z,29.42
2019-06-07T07:09:24.076Z,29.19
2019-06-07T07:12:10.214Z,29.04
2019-06-07T07:14:26.709Z,28.65
2019-06-07T07:16:57.749Z,28.36
2019-06-07T07:19:30.282Z,28.09
2019-06-07T07:22:01.051Z,28.20
2019-06-07T07:24:31.558Z,29.74
2019-06-07T07:27:01.939Z,30.83
2019-06-07T07:29:32.477Z,31.66
2019-06-07T07:32:02.829Z,33.34
2019-06-07T07:34:36.921Z,35.35
2019-06-07T07:37:05.553Z,36.32
2019-06-07T07:39:35.985Z,36.00
2019-06-07T07:42:20.127Z,34.91
2019-06-07T07:44:39.107Z,34.63
2019-06-07T07:47:09.795Z,34.87
2019-06-07T07:49:40.265Z,35.60
2019-06-07T07:52:10.699Z,36.58
2019-06-07T07:54:41.135Z,38.20
2019-06-07T07:57:11.496Z,39.64
2019-06-07T07:59:57.242Z,41.47
2019-06-07T08:02:14.028Z,42.29
2019-06-07T08:07:16.539Z,40.92
2019-06-07T08:09:48.077Z,42.27
2019-06-07T08:12:19.327Z,44.00
2019-06-07T08:14:51.134Z,46.06
2019-06-07T08:17:21.869Z,47.42
2019-06-07T08:19:54.314Z,47.96
2019-06-07T08:22:24.386Z,46.44
2019-06-07T08:24:55.964Z,44.05
2019-06-07T08:27:27.174Z,43.69
2019-06-07T08:30:16.074Z,42.25
2019-06-07T08:32:29.653Z,40.99
2019-06-07T08:35:05.941Z,40.14
2019-06-07T08:38:14.103Z,40.67
2019-06-07T08:40:04.621Z,41.96
2019-06-07T08:42:37.256Z,43.39
2019-06-07T08:45:07.306Z,45.41
2019-06-07T08:47:37.754Z,47.07
2019-06-07T08:50:08.566Z,48.76
2019-06-07T08:52:39.208Z,48.73
2019-06-07T08:55:09.947Z,48.69
2019-06-07T08:57:40.391Z,46.47
2019-06-07T09:00:42.343Z,45.90
2019-06-07T09:02:43.434Z,45.26
2019-06-07T09:05:14.707Z,44.47
2019-06-07T09:07:45.069Z,42.76
2019-06-07T09:10:15.871Z,41.48
2019-06-07T09:12:46.400Z,40.79
2019-06-07T09:15:23.515Z,39.37
2019-06-07T09:18:34.898Z,38.84
2019-06-07T09:20:36.378Z,37.84
2019-06-07T09:22:59.094Z,36.53
2019-06-07T09:25:26.210Z,35.44
2019-06-07T09:28:00.668Z,34.44
2019-06-07T09:30:47.205Z,33.67
2019-06-07T09:33:17.581Z,33.24
2019-06-07T09:35:49.220Z,32.92
2019-06-07T09:38:25.685Z,32.93
2019-06-07T09:40:51.758Z,33.43
2019-06-07T09:45:54.275Z,33.54
2019-06-07T09:49:09.123Z,33.73
2019-06-07T09:51:02.149Z,33.98
2019-06-07T09:53:29.237Z,34.26
2019-06-07T09:56:03.529Z,34.43
2019-06-07T09:58:51.026Z,35.59
2019-06-07T10:01:09.912Z,36.29
2019-06-07T10:03:35.974Z,37.50
2019-06-07T10:06:12.383Z,38.65
2019-06-07T10:09:57.022Z,40.09
2019-06-07T10:11:12.537Z,40.80
2019-06-07T10:13:42.918Z,41.91
2019-06-07T10:16:13.321Z,42.32
2019-06-07T10:18:43.705Z,44.15
2019-06-07T10:21:14.997Z,46.45
2019-06-07T10:23:45.784Z,48.10
2019-06-07T10:26:16.148Z,49.40
2019-06-07T10:28:46.680Z,51.67
2019-06-07T10:31:17.038Z,52.21
2019-06-07T10:33:47.385Z,52.53
2019-06-07T10:36:17.775Z,52.51
2019-06-07T10:38:48.814Z,50.25
2019-06-07T10:41:19.595Z,51.60
2019-06-07T10:43:49.989Z,53.10
2019-06-07T10:46:20.420Z,53.72
2019-06-07T10:48:50.854Z,54.72
2019-06-07T10:51:21.231Z,55.78
2019-06-07T10:53:51.587Z,56.37
2019-06-07T10:56:21.974Z,53.09
2019-06-07T10:58:52.336Z,50.29
2019-06-07T11:01:22.673Z,50.27
2019-06-07T11:03:53.282Z,48.26
2019-06-07T11:06:23.622Z,45.82
2019-06-07T11:08:53.969Z,46.47
2019-06-07T11:11:24.394Z,47.98
2019-06-07T11:13:54.746Z,49.13
2019-06-07T11:16:25.158Z,49.39
2019-06-07T11:18:55.546Z,50.51
2019-06-07T11:21:25.891Z,50.65
2019-06-07T11:23:56.270Z,49.46
2019-06-07T11:26:26.773Z,48.03
2019-06-07T11:28:57.209Z,46.06
2019-06-07T11:31:27.685Z,43.54
2019-06-07T11:33:58.028Z,41.94
2019-06-07T11:36:28.704Z,40.19
2019-06-07T11:38:59.478Z,38.45
2019-06-07T11:41:29.941Z,37.34
2019-06-07T11:44:00.302Z,36.75
2019-06-07T11:46:30.772Z,36.79
2019-06-07T11:49:01.271Z,36.42
2019-06-07T11:51:31.589Z,35.92
2019-06-07T11:54:02.118Z,35.47
2019-06-07T11:56:32.517Z,35.13
2019-06-07T11:59:02.933Z,34.86
2019-06-07T12:01:33.327Z,34.76
2019-06-07T12:04:03.735Z,34.76
2019-06-07T12:06:34.096Z,34.73
2019-06-07T12:09:05.899Z,34.50
2019-06-07T12:11:36.378Z,34.17
2019-06-07T12:14:06.971Z,34.03
2019-06-07T12:16:37.484Z,34.01
2019-06-07T12:19:09.542Z,34.04
2019-06-07T12:21:40.501Z,33.79
2019-06-07T12:24:12.152Z,33.60
2019-06-07T12:26:42.580Z,33.15
2019-06-07T12:29:13.176Z,32.92
2019-06-07T12:31:43.607Z,32.66
2019-06-07T12:34:15.446Z,32.47
2019-06-07T12:36:46.078Z,32.65
2019-06-07T12:39:16.463Z,32.60
2019-06-07T12:41:46.832Z,32.23
2019-06-07T12:44:18.522Z,32.19
2019-06-07T12:46:49.445Z,32.20
2019-06-07T12:49:21.099Z,32.28
2019-06-07T12:51:51.639Z,31.96
2019-06-07T12:54:22.016Z,31.75
2019-06-07T12:56:52.578Z,30.99
2019-06-07T12:59:24.198Z,30.81
2019-06-07T13:01:54.783Z,30.82
2019-06-07T13:04:25.260Z,30.86
2019-06-07T13:06:55.628Z,30.85
2019-06-07T13:09:26.073Z,30.89
2019-06-07T13:11:56.504Z,31.00
2019-06-07T13:14:28.447Z,30.92
2019-06-07T13:16:59.304Z,30.96
2019-06-07T13:19:29.798Z,31.06
2019-06-07T13:22:00.189Z,31.04
2019-06-07T13:24:30.660Z,31.13
2019-06-07T13:27:01.052Z,31.03
2019-06-07T13:29:32.263Z,31.00
2019-06-07T13:32:02.974Z,31.05
2019-06-07T13:34:33.331Z,31.12
2019-06-07T13:37:03.754Z,31.04
2019-06-07T13:39:34.156Z,30.95
2019-06-07T13:42:04.543Z,30.77
2019-06-07T13:44:34.970Z,30.55
2019-06-07T13:47:05.429Z,30.35
2019-06-07T13:49:35.784Z,30.21
2019-06-07T13:52:06.174Z,30.11
2019-06-07T13:54:36.604Z,30.10
2019-06-07T13:57:06.928Z,30.08
2019-06-07T13:59:37.289Z,30.05
2019-06-07T14:02:07.645Z,30.03
2019-06-07T14:04:38.491Z,29.94
2019-06-07T14:07:09.274Z,29.78
2019-06-07T14:09:39.732Z,29.72
2019-06-07T14:12:10.181Z,29.69
2019-06-07T14:14:40.594Z,29.60
2019-06-07T14:17:10.920Z,29.45
2019-06-07T14:19:43.584Z,29.32
2019-06-07T14:22:13.958Z,29.30
2019-06-07T14:24:44.323Z,29.22
2019-06-07T14:27:14.737Z,29.18
2019-06-07T14:29:45.055Z,29.11
2019-06-07T14:32:15.431Z,29.09
2019-06-07T14:34:45.815Z,29.12
2019-06-07T14:37:16.166Z,29.07
2019-06-07T14:39:46.557Z,29.04
2019-06-07T14:42:16.960Z,29.09
2019-06-07T14:44:47.426Z,29.12
2019-06-07T14:47:17.790Z,29.14
2019-06-07T14:49:48.919Z,29.29
2019-06-07T14:52:19.651Z,29.04
2019-06-07T14:54:50.058Z,28.96
2019-06-07T14:57:21.286Z,28.84
2019-06-07T14:59:51.737Z,28.72
2019-06-07T15:02:22.128Z,28.62
2019-06-07T15:04:52.480Z,28.52
2019-06-07T15:07:22.889Z,28.47
2019-06-07T15:09:53.242Z,28.47
2019-06-07T15:12:25.331Z,28.46
2019-06-07T15:14:55.673Z,28.43
2019-06-07T15:17:26.490Z,28.45
2019-06-07T15:19:57.529Z,28.39
2019-06-07T15:22:28.044Z,28.28
2019-06-07T15:24:58.384Z,28.27
2019-06-07T15:27:29.148Z,28.22
2019-06-07T15:29:59.627Z,28.21
2019-06-07T15:32:30.612Z,28.20
2019-06-07T15:35:01.512Z,28.16
2019-06-07T15:37:32.563Z,28.13
2019-06-07T15:40:03.105Z,28.14
2019-06-07T15:42:47.668Z,28.04
2019-06-07T15:45:05.882Z,27.91
2019-06-07T15:47:36.250Z,27.87
2019-06-07T15:50:07.265Z,27.93
2019-06-07T15:52:38.280Z,27.95
2019-06-07T15:55:10.248Z,27.83
2019-06-07T15:57:42.254Z,27.77
2019-06-07T16:00:14.852Z,27.69
2019-06-07T16:02:45.241Z,27.63
2019-06-07T16:05:16.236Z,27.50
2019-06-07T16:07:46.684Z,27.51
2019-06-07T16:10:17.228Z,27.50
2019-06-07T16:12:59.684Z,27.50
2019-06-07T16:15:19.916Z,27.53
2019-06-07T16:17:50.311Z,27.53
2019-06-07T16:20:20.781Z,27.41
2019-06-07T16:22:51.141Z,27.42
2019-06-07T16:25:21.520Z,27.40
2019-06-07T16:27:51.891Z,27.38
2019-06-07T16:30:22.354Z,27.31
2019-06-07T16:32:53.486Z,27.29
2019-06-07T16:35:23.976Z,27.23
2019-06-07T16:37:54.324Z,27.24
2019-06-07T16:40:24.658Z,27.12
2019-06-07T16:42:55.031Z,27.15
2019-06-07T16:45:25.460Z,27.16
2019-06-07T16:47:55.806Z,27.20
2019-06-07T16:50:26.231Z,27.12
2019-06-07T16:52:56.653Z,27.09
2019-06-07T16:55:27.017Z,27.08
2019-06-07T16:57:57.414Z,27.11
2019-06-07T17:00:27.984Z,27.10
2019-06-07T17:02:58.436Z,27.10
2019-06-07T17:05:28.828Z,27.06
2019-06-07T17:07:59.243Z,26.96
2019-06-07T17:10:29.609Z,27.00
2019-06-07T17:12:59.960Z,26.95
2019-06-07T17:15:30.366Z,26.84
2019-06-07T17:18:00.710Z,26.81
2019-06-07T17:20:31.168Z,26.90
2019-06-07T17:23:01.544Z,26.90
2019-06-07T17:25:31.895Z,26.83
2019-06-07T17:28:02.250Z,26.68
2019-06-07T17:30:32.578Z,26.61
2019-06-07T17:33:02.954Z,26.57
2019-06-07T17:35:33.296Z,26.52
2019-06-07T17:38:03.789Z,26.55
2019-06-07T17:40:34.145Z,26.50
2019-06-07T17:43:04.508Z,26.42
2019-06-07T17:45:34.911Z,26.28
2019-06-07T17:48:05.370Z,26.21
2019-06-07T17:50:35.787Z,26.19
2019-06-07T17:53:06.158Z,26.11
2019-06-07T17:55:36.598Z,26.10
2019-06-07T17:58:06.989Z,26.00
2019-06-07T18:00:51.227Z,25.94
2019-06-07T18:03:21.791Z,25.84
2019-06-07T18:05:53.784Z,25.74
2019-06-07T18:08:25.436Z,25.69
2019-06-07T18:10:55.838Z,25.64
2019-06-07T18:13:26.290Z,25.54
2019-06-07T18:15:59.441Z,25.47
2019-06-07T18:18:29.182Z,25.41
2019-06-07T18:20:59.753Z,25.39
2019-06-07T18:23:30.133Z,25.28
2019-06-07T18:26:00.500Z,25.25
2019-06-07T18:28:30.835Z,25.16
2019-06-07T18:31:01.177Z,25.12
2019-06-07T18:33:31.653Z,25.12
2019-06-07T18:36:02.137Z,25.07
2019-06-07T18:38:32.690Z,25.01
2019-06-07T18:41:03.084Z,24.96
2019-06-07T18:43:34.450Z,24.92
2019-06-07T18:46:04.849Z,24.88
2019-06-07T18:48:35.231Z,24.80
2019-06-07T18:51:05.833Z,24.76
2019-06-07T18:53:36.318Z,24.67
2019-06-07T18:56:06.701Z,24.54
2019-06-07T18:58:37.042Z,24.48
2019-06-07T19:01:07.443Z,24.42
2019-06-07T19:03:37.867Z,24.41
2019-06-07T19:06:08.857Z,24.32
2019-06-07T19:08:39.614Z,24.34
2019-06-07T19:11:10.008Z,24.28
2019-06-07T19:13:40.372Z,24.18
2019-06-07T19:16:10.762Z,24.09
2019-06-07T19:18:41.199Z,24.02
2019-06-07T19:21:11.597Z,23.98
2019-06-07T19:23:42.039Z,23.93
2019-06-07T19:26:12.582Z,23.89
2019-06-07T19:28:43.033Z,23.88
2019-06-07T19:31:13.389Z,23.80
2019-06-07T19:33:48.981Z,23.81
2019-06-07T19:36:16.021Z,23.68
2019-06-07T19:38:46.424Z,23.70
2019-06-07T19:41:19.598Z,23.66
2019-06-07T19:43:48.879Z,23.54
2019-06-07T19:46:19.319Z,23.52
2019-06-07T19:48:49.752Z,23.50
2019-06-07T19:51:20.501Z,23.50
2019-06-07T19:53:50.986Z,23.52
2019-06-07T19:56:21.329Z,23.49
2019-06-07T19:58:51.773Z,23.47
2019-06-07T20:01:22.160Z,23.44
2019-06-07T20:03:53.735Z,23.38
2019-06-07T20:06:24.148Z,23.37
2019-06-07T20:08:54.518Z,23.34
2019-06-07T20:11:24.884Z,23.28
2019-06-07T20:13:56.260Z,23.23
2019-06-07T20:16:26.809Z,23.24
2019-06-07T20:18:58.134Z,23.21
2019-06-07T20:21:28.677Z,23.20
2019-06-07T20:24:01.650Z,23.31
2019-06-07T20:26:31.319Z,23.41
2019-06-07T20:29:01.950Z,23.42
2019-06-07T20:31:32.330Z,23.49
2019-06-07T20:34:05.778Z,23.58
2019-06-07T20:36:37.571Z,23.63
2019-06-07T20:39:08.499Z,23.69
2019-06-07T20:41:39.371Z,23.62
2019-06-07T20:44:10.814Z,23.64
2019-06-07T20:46:41.315Z,23.63
2019-06-07T20:49:47.877Z,23.59
2019-06-07T20:52:54.316Z,23.43
2019-06-07T20:56:00.566Z,23.34
2019-06-07T20:59:07.017Z,23.22
2019-06-07T21:02:13.638Z,22.98
2019-06-07T21:05:20.222Z,22.88
2019-06-07T21:07:50.837Z,22.81
2019-06-07T21:10:21.276Z,22.76
2019-06-07T21:12:51.807Z,22.73
2019-06-07T21:15:22.327Z,22.68
2019-06-07T21:17:52.857Z,22.66
2019-06-07T21:20:23.364Z,22.65
2019-06-07T21:22:53.732Z,22.65
2019-06-07T21:25:24.222Z,22.65
2019-06-07T21:27:54.695Z,22.61
2019-06-07T21:30:25.034Z,22.55
2019-06-07T21:32:55.498Z,22.48
2019-06-07T21:35:25.884Z,22.45
2019-06-07T21:37:56.313Z,22.45
2019-06-07T21:40:26.966Z,22.41
2019-06-07T21:42:57.352Z,22.38
2019-06-07T21:45:27.792Z,22.39
2019-06-07T21:47:58.780Z,22.36
2019-06-07T21:50:29.601Z,22.36
2019-06-07T21:52:59.958Z,22.25
2019-06-07T21:55:30.501Z,22.20
2019-06-07T21:58:00.944Z,22.20
2019-06-07T22:01:17.366Z,22.18
2019-06-07T22:03:48.253Z,22.21
2019-06-07T22:06:18.941Z,22.20
2019-06-07T22:08:49.742Z,22.18
2019-06-07T22:11:20.088Z,22.14
2019-06-07T22:13:50.512Z,22.09
2019-06-07T22:16:28.464Z,22.10
2019-06-07T22:18:52.969Z,22.06
2019-06-07T22:21:23.328Z,22.01
2019-06-07T22:23:53.752Z,21.97
2019-06-07T22:26:24.124Z,21.93
2019-06-07T22:28:54.512Z,21.93
2019-06-07T22:31:24.939Z,21.94
2019-06-07T22:33:55.358Z,21.86
2019-06-07T22:36:25.735Z,21.84
2019-06-07T22:38:56.213Z,21.86
2019-06-07T22:41:26.746Z,21.90
2019-06-07T22:43:57.130Z,21.91
2019-06-07T22:46:36.969Z,21.97
2019-06-07T22:48:59.756Z,21.95
2019-06-07T22:51:30.118Z,21.79
2019-06-07T22:54:00.519Z,21.76
2019-06-07T22:56:45.009Z,21.63
2019-06-07T22:59:18.724Z,21.56
2019-06-07T23:01:47.438Z,21.52
2019-06-07T23:04:19.325Z,21.52
2019-06-07T23:06:49.784Z,21.49
2019-06-07T23:09:20.135Z,21.49
2019-06-07T23:11:50.572Z,21.44
2019-06-07T23:14:20.942Z,21.40
2019-06-07T23:16:55.486Z,21.21
2019-06-07T23:19:23.420Z,21.17
2019-06-07T23:21:53.802Z,21.18
2019-06-07T23:24:24.288Z,21.18
2019-06-07T23:26:54.698Z,21.14
2019-06-07T23:29:25.539Z,20.96
2019-06-07T23:31:55.932Z,20.96
2019-06-07T23:34:26.345Z,20.93
2019-06-07T23:36:56.746Z,20.94
2019-06-07T23:39:27.167Z,20.92
2019-06-07T23:41:57.564Z,20.87
2019-06-07T23:44:27.980Z,20.72
2019-06-07T23:47:10.680Z,20.71
2019-06-07T23:49:30.476Z,20.54
2019-06-07T23:52:01.240Z,20.54
2019-06-07T23:54:31.655Z,20.58
2019-06-07T23:57:02.054Z,20.54
2019-06-07T23:59:32.518Z,20.54
